createdAt,value
2019-04-16T00:02:27.846Z,30.97
2019-04-16T00:05:06.241Z,36.60
2019-04-16T00:07:40.540Z,32.07
2019-04-16T00:10:17.657Z,32.47
2019-04-16T00:13:08.145Z,29.20
2019-04-16T00:15:41.375Z,23.73
2019-04-16T00:18:18.516Z,29.90
2019-04-16T00:21:10.062Z,21.90
2019-04-16T00:23:46.674Z,23.53
2019-04-16T00:26:19.387Z,19.20
2019-04-16T00:28:51.931Z,28.70
2019-04-16T00:31:24.652Z,29.47
2019-04-16T00:33:57.427Z,25.10
2019-04-16T00:36:29.997Z,25.50
2019-04-16T00:39:02.512Z,25.43
2019-04-16T00:41:36.891Z,27.63
2019-04-16T00:44:09.664Z,23.83
2019-04-16T00:46:42.181Z,24.87
2019-04-16T00:49:14.808Z,34.30
2019-04-16T00:51:47.598Z,25.10
2019-04-16T00:54:20.351Z,26.57
2019-04-16T00:56:52.883Z,23.17
2019-04-16T00:59:25.431Z,21.53
2019-04-16T01:01:58.215Z,19.73
2019-04-16T01:04:30.975Z,28.10
2019-04-16T01:07:05.010Z,29.50
2019-04-16T01:09:37.802Z,26.50
2019-04-16T01:12:10.570Z,22.53
2019-04-16T01:14:43.256Z,21.27
2019-04-16T01:17:17.371Z,25.20
2019-04-16T01:19:50.051Z,26.67
2019-04-16T01:22:22.534Z,24.20
2019-04-16T01:24:55.281Z,20.03
2019-04-16T01:27:35.465Z,20.83
2019-04-16T01:30:10.701Z,22.03
2019-04-16T01:32:53.205Z,20.73
2019-04-16T01:35:43.588Z,20.80
2019-04-16T01:38:20.641Z,24.33
2019-04-16T01:40:54.995Z,21.77
2019-04-16T01:43:27.575Z,45.67
2019-04-16T01:46:01.477Z,46.73
2019-04-16T01:48:38.678Z,39.43
2019-04-16T01:51:08.874Z,28.57
2019-04-16T01:53:41.495Z,37.97
2019-04-16T01:56:17.271Z,22.97
2019-04-16T01:58:49.806Z,26.07
2019-04-16T02:01:22.538Z,25.33
2019-04-16T02:03:55.256Z,22.10
2019-04-16T02:06:27.814Z,18.23
2019-04-16T02:09:02.996Z,24.33
2019-04-16T02:11:38.859Z,20.03
2019-04-16T02:14:10.649Z,19.43
2019-04-16T02:16:43.161Z,17.33
2019-04-16T02:19:15.641Z,25.10
2019-04-16T02:21:48.166Z,21.83
2019-04-16T02:24:20.681Z,18.53
2019-04-16T02:26:54.810Z,18.63
2019-04-16T02:29:30.556Z,20.93
2019-04-16T02:32:01.948Z,18.30
2019-04-16T02:34:34.676Z,21.97
2019-04-16T02:37:07.462Z,25.20
2019-04-16T02:39:48.984Z,18.40
2019-04-16T02:42:14.866Z,20.57
2019-04-16T02:44:50.196Z,22.23
2019-04-16T02:47:22.276Z,19.03
2019-04-16T02:49:56.834Z,21.47
2019-04-16T02:52:31.604Z,19.80
2019-04-16T02:55:22.152Z,19.40
2019-04-16T02:58:15.546Z,21.60
2019-04-16T03:01:06.000Z,21.53
2019-04-16T03:03:43.535Z,17.43
2019-04-16T03:06:16.475Z,16.63
2019-04-16T03:08:49.416Z,21.90
2019-04-16T03:11:21.931Z,19.37
2019-04-16T03:13:58.235Z,20.50
2019-04-16T03:16:47.106Z,19.77
2019-04-16T03:19:24.606Z,19.53
2019-04-16T03:21:59.079Z,16.60
2019-04-16T03:24:31.851Z,21.17
2019-04-16T03:27:05.886Z,19.30
2019-04-16T03:29:38.660Z,19.77
2019-04-16T03:32:14.306Z,20.83
2019-04-16T03:34:45.806Z,18.33
2019-04-16T03:37:18.622Z,18.77
2019-04-16T03:39:51.406Z,22.20
2019-04-16T03:42:24.504Z,23.57
2019-04-16T03:44:58.816Z,20.60
2019-04-16T03:47:31.385Z,19.10
2019-04-16T03:50:05.100Z,22.00
2019-04-16T03:52:40.922Z,18.23
2019-04-16T03:55:12.176Z,32.63
2019-04-16T03:57:44.946Z,24.27
2019-04-16T04:00:17.928Z,29.17
2019-04-16T04:02:54.220Z,21.60
2019-04-16T04:05:24.933Z,23.10
2019-04-16T04:07:57.524Z,22.13
2019-04-16T04:10:31.337Z,24.57
2019-04-16T04:13:05.026Z,28.50
2019-04-16T04:15:38.141Z,26.27
2019-04-16T04:18:12.596Z,28.27
2019-04-16T04:20:49.616Z,27.73
2019-04-16T04:23:19.631Z,34.33
2019-04-16T04:25:52.271Z,41.43
2019-04-16T04:28:24.976Z,28.83
2019-04-16T04:31:00.395Z,33.10
2019-04-16T04:33:40.954Z,67.77
2019-04-16T04:36:12.478Z,73.93
2019-04-16T04:38:45.145Z,103.30
2019-04-16T04:41:19.889Z,62.60
2019-04-16T04:43:51.941Z,54.43
2019-04-16T04:46:24.601Z,125.57
2019-04-16T04:49:00.033Z,189.57
2019-04-16T04:51:31.451Z,97.43
2019-04-16T04:54:04.241Z,77.50
2019-04-16T04:56:36.837Z,41.30
2019-04-16T04:59:09.321Z,35.97
2019-04-16T05:01:42.728Z,32.50
2019-04-16T05:04:19.479Z,37.73
2019-04-16T05:07:04.866Z,35.57
2019-04-16T05:09:37.761Z,29.37
2019-04-16T05:12:10.229Z,33.40
2019-04-16T05:14:57.114Z,29.33
2019-04-16T05:17:29.925Z,30.67
2019-04-16T05:20:02.290Z,29.67
2019-04-16T05:22:34.886Z,25.27
2019-04-16T05:25:08.056Z,31.60
2019-04-16T05:27:41.882Z,30.90
2019-04-16T05:30:19.961Z,38.23
2019-04-16T05:32:49.551Z,23.77
2019-04-16T05:35:22.061Z,33.90
2019-04-16T05:37:54.490Z,29.23
2019-04-16T05:40:28.023Z,27.03
2019-04-16T05:43:01.265Z,31.53
2019-04-16T05:45:34.500Z,39.13
2019-04-16T05:48:08.427Z,29.37
2019-04-16T05:50:41.006Z,32.20
2019-04-16T05:53:13.951Z,36.77
2019-04-16T05:55:50.871Z,32.20
2019-04-16T05:58:23.739Z,32.07
2019-04-16T06:01:03.696Z,36.40
2019-04-16T06:03:36.281Z,32.20
2019-04-16T06:06:09.138Z,29.17
2019-04-16T06:08:42.051Z,40.80
2019-04-16T06:11:27.658Z,41.43
2019-04-16T06:13:56.526Z,34.37
2019-04-16T06:16:33.806Z,37.97
2019-04-16T06:19:08.538Z,33.27
2019-04-16T06:22:00.686Z,44.57
2019-04-16T06:24:36.125Z,32.73
2019-04-16T06:27:13.456Z,40.77
2019-04-16T06:30:04.418Z,35.97
2019-04-16T06:32:50.450Z,39.43
2019-04-16T06:35:43.339Z,38.53
2019-04-16T06:38:19.616Z,41.73
2019-04-16T06:41:07.411Z,44.70
2019-04-16T06:43:45.107Z,35.47
2019-04-16T06:46:39.478Z,43.97
2019-04-16T06:49:18.765Z,46.43
2019-04-16T06:52:12.455Z,43.40
2019-04-16T06:54:55.162Z,42.63
2019-04-16T06:57:33.474Z,42.80
2019-04-16T07:00:26.953Z,36.63
2019-04-16T07:03:03.054Z,39.37
2019-04-16T07:05:37.407Z,38.07
2019-04-16T07:08:36.530Z,38.70
2019-04-16T07:11:01.707Z,37.30
2019-04-16T07:13:41.974Z,45.27
2019-04-16T07:16:12.245Z,41.00
2019-04-16T07:18:46.620Z,39.20
2019-04-16T07:21:25.216Z,41.10
2019-04-16T07:23:58.587Z,41.60
2019-04-16T07:26:31.351Z,45.67
2019-04-16T07:29:08.576Z,33.20
2019-04-16T07:31:42.713Z,36.87
2019-04-16T07:34:43.440Z,36.30
2019-04-16T07:37:33.168Z,45.53
2019-04-16T07:40:41.336Z,33.33
2019-04-16T07:43:32.856Z,35.70
2019-04-16T07:46:15.656Z,40.63
2019-04-16T07:48:54.685Z,38.17
2019-04-16T07:51:49.276Z,34.70
2019-04-16T07:54:57.235Z,37.03
2019-04-16T07:57:47.076Z,34.73
2019-04-16T08:00:21.296Z,31.27
2019-04-16T08:03:12.155Z,29.90
2019-04-16T08:06:02.180Z,28.33
2019-04-16T08:08:34.657Z,26.93
2019-04-16T08:11:16.398Z,28.90
2019-04-16T08:13:51.917Z,31.13
2019-04-16T08:16:47.567Z,37.23
2019-04-16T08:19:16.269Z,29.33
2019-04-16T08:22:06.550Z,25.30
2019-04-16T08:24:43.297Z,27.23
2019-04-16T08:27:19.195Z,35.53
2019-04-16T08:29:52.156Z,20.97
2019-04-16T08:32:27.116Z,25.77
2019-04-16T08:34:59.496Z,25.63
2019-04-16T08:37:49.641Z,26.53
2019-04-16T08:40:31.337Z,17.73
2019-04-16T08:43:03.756Z,22.97
2019-04-16T08:45:54.455Z,20.97
2019-04-16T08:48:48.923Z,18.47
2019-04-16T08:51:30.747Z,30.70
2019-04-16T08:53:57.898Z,19.10
2019-04-16T08:56:30.235Z,17.83
2019-04-16T08:59:19.837Z,21.50
2019-04-16T09:02:07.580Z,26.73
2019-04-16T09:04:55.415Z,23.33
2019-04-16T09:07:40.295Z,21.53
2019-04-16T09:10:23.297Z,16.87
2019-04-16T09:13:03.257Z,17.97
2019-04-16T09:15:36.536Z,17.63
2019-04-16T09:18:22.636Z,17.60
2019-04-16T09:20:57.656Z,14.43
2019-04-16T09:23:30.136Z,17.70
2019-04-16T09:26:23.671Z,15.90
2019-04-16T09:29:06.436Z,18.37
2019-04-16T09:31:55.450Z,26.63
2019-04-16T09:34:29.497Z,22.20
2019-04-16T09:37:03.526Z,16.17
2019-04-16T09:39:55.957Z,15.57
2019-04-16T09:42:31.170Z,15.33
2019-04-16T09:45:05.807Z,15.40
2019-04-16T09:47:38.297Z,16.60
2019-04-16T09:50:14.182Z,15.20
2019-04-16T09:53:04.440Z,21.20
2019-04-16T09:55:55.416Z,16.23
2019-04-16T09:58:45.221Z,9.33
2019-04-16T10:01:25.436Z,12.53
2019-04-16T10:04:17.318Z,11.43
2019-04-16T10:06:49.796Z,11.67
2019-04-16T10:09:28.026Z,13.83
2019-04-16T10:12:05.051Z,12.87
2019-04-16T10:14:37.021Z,14.60
2019-04-16T10:17:13.451Z,14.47
2019-04-16T10:19:48.557Z,12.60
2019-04-16T10:22:20.796Z,12.43
2019-04-16T10:25:14.916Z,12.70
2019-04-16T10:28:05.877Z,11.23
2019-04-16T10:30:42.776Z,11.03
2019-04-16T10:33:16.321Z,14.17
2019-04-16T10:35:48.855Z,18.57
2019-04-16T10:38:36.841Z,12.47
2019-04-16T10:41:24.009Z,12.63
2019-04-16T10:44:14.302Z,14.40
2019-04-16T10:47:04.778Z,16.77
2019-04-16T10:49:41.709Z,10.63
2019-04-16T10:52:34.947Z,12.90
2019-04-16T10:55:29.237Z,17.03
2019-04-16T10:58:31.046Z,12.13
2019-04-16T11:01:38.819Z,15.77
2019-04-16T11:04:19.657Z,10.37
2019-04-16T11:07:10.796Z,16.83
2019-04-16T11:09:43.576Z,16.30
2019-04-16T11:12:19.740Z,11.90
2019-04-16T11:14:51.549Z,12.07
2019-04-16T11:17:41.456Z,12.13
2019-04-16T11:20:13.891Z,15.87
2019-04-16T11:23:06.872Z,14.37
2019-04-16T11:25:46.346Z,10.50
2019-04-16T11:28:35.918Z,15.33
2019-04-16T11:31:10.672Z,10.63
2019-04-16T11:34:00.407Z,10.83
2019-04-16T11:36:41.998Z,11.03
2019-04-16T11:39:14.482Z,11.47
2019-04-16T11:42:04.601Z,16.17
2019-04-16T11:44:45.972Z,13.30
2019-04-16T11:47:37.953Z,9.30
2019-04-16T11:50:10.193Z,11.67
2019-04-16T11:52:42.677Z,15.73
2019-04-16T11:55:15.196Z,14.40
2019-04-16T11:57:47.711Z,12.70
2019-04-16T12:00:38.722Z,13.07
2019-04-16T12:03:34.894Z,11.83
2019-04-16T12:06:28.533Z,10.07
2019-04-16T12:09:01.773Z,9.30
2019-04-16T12:11:42.838Z,10.43
2019-04-16T12:14:43.642Z,9.50
2019-04-16T12:17:25.254Z,15.23
2019-04-16T12:20:09.334Z,16.30
2019-04-16T12:22:50.614Z,7.80
2019-04-16T12:25:44.994Z,12.97
2019-04-16T12:28:42.295Z,7.03
2019-04-16T12:31:11.699Z,8.23
2019-04-16T12:34:00.262Z,12.90
2019-04-16T12:36:47.449Z,11.90
2019-04-16T12:39:25.860Z,16.90
2019-04-16T12:42:11.432Z,8.23
2019-04-16T12:44:50.980Z,10.53
2019-04-16T12:47:34.152Z,10.37
2019-04-16T12:50:17.472Z,9.93
2019-04-16T12:53:11.866Z,9.50
2019-04-16T12:55:51.774Z,14.30
2019-04-16T12:58:25.928Z,10.27
2019-04-16T13:01:19.739Z,12.60
2019-04-16T13:04:09.932Z,10.63
2019-04-16T13:07:13.951Z,10.97
2019-04-16T13:10:08.134Z,12.30
2019-04-16T13:12:46.131Z,12.33
2019-04-16T13:15:22.807Z,9.27
2019-04-16T13:18:02.551Z,11.13
2019-04-16T13:20:52.932Z,19.97
2019-04-16T13:23:32.792Z,11.93
2019-04-16T13:26:23.059Z,14.60
2019-04-16T13:28:56.282Z,14.80
2019-04-16T13:31:28.987Z,20.10
2019-04-16T13:34:04.539Z,18.67
2019-04-16T13:36:36.892Z,17.53
2019-04-16T13:39:25.228Z,12.60
2019-04-16T13:41:57.656Z,16.83
2019-04-16T13:44:51.127Z,9.30
2019-04-16T13:47:23.863Z,10.83
2019-04-16T13:50:06.686Z,16.57
2019-04-16T13:52:45.446Z,11.63
2019-04-16T13:55:31.826Z,15.10
2019-04-16T13:58:09.242Z,14.90
2019-04-16T14:00:49.489Z,21.47
2019-04-16T14:03:25.013Z,19.50
2019-04-16T14:05:57.812Z,8.93
2019-04-16T14:08:30.628Z,17.40
2019-04-16T14:11:03.544Z,9.50
2019-04-16T14:13:36.501Z,15.10
2019-04-16T14:16:12.714Z,10.33
2019-04-16T14:18:45.182Z,9.50
2019-04-16T14:21:18.162Z,11.53
2019-04-16T14:23:51.461Z,12.03
2019-04-16T14:26:24.163Z,12.77
2019-04-16T14:28:56.980Z,9.77
2019-04-16T14:31:29.561Z,25.13
2019-04-16T14:34:16.002Z,9.97
2019-04-16T14:36:48.582Z,16.30
2019-04-16T14:39:33.066Z,14.10
2019-04-16T14:42:05.946Z,22.53
2019-04-16T14:44:46.062Z,13.17
2019-04-16T14:47:19.031Z,10.53
2019-04-16T14:49:51.702Z,13.27
2019-04-16T14:52:24.617Z,14.67
2019-04-16T14:55:02.018Z,22.13
2019-04-16T14:57:36.421Z,17.83
2019-04-16T15:00:20.905Z,20.03
2019-04-16T15:02:58.282Z,15.17
2019-04-16T15:05:35.551Z,21.40
2019-04-16T15:08:25.242Z,18.67
2019-04-16T15:11:09.597Z,17.27
2019-04-16T15:13:49.892Z,20.27
2019-04-16T15:16:27.134Z,19.10
2019-04-16T15:19:18.288Z,22.03
2019-04-16T15:22:08.729Z,32.30
2019-04-16T15:24:43.267Z,21.83
2019-04-16T15:27:20.236Z,17.57
2019-04-16T15:29:56.478Z,22.27
2019-04-16T15:32:37.832Z,14.50
2019-04-16T15:35:18.478Z,24.23
2019-04-16T15:37:59.256Z,27.80
2019-04-16T15:40:39.286Z,17.73
2019-04-16T15:43:27.116Z,19.03
2019-04-16T15:46:07.157Z,14.67
2019-04-16T15:48:53.887Z,19.67
2019-04-16T15:51:28.471Z,21.73
2019-04-16T15:54:14.486Z,17.03
2019-04-16T15:56:59.357Z,17.60
2019-04-16T15:59:36.943Z,18.10
2019-04-16T16:02:26.932Z,16.63
2019-04-16T16:05:01.298Z,19.87
2019-04-16T16:07:35.092Z,15.17
2019-04-16T16:10:13.686Z,15.30
2019-04-16T16:12:44.561Z,26.03
2019-04-16T16:15:17.303Z,21.93
2019-04-16T16:17:50.001Z,27.30
2019-04-16T16:20:23.176Z,19.63
2019-04-16T16:22:58.395Z,25.83
2019-04-16T16:25:30.446Z,30.53
2019-04-16T16:28:04.106Z,25.40
2019-04-16T16:30:37.097Z,17.97
2019-04-16T16:33:10.192Z,27.57
2019-04-16T16:35:56.947Z,53.30
2019-04-16T16:38:20.636Z,22.37
2019-04-16T16:40:52.321Z,19.10
2019-04-16T16:43:24.892Z,29.77
2019-04-16T16:46:15.552Z,29.20
2019-04-16T16:48:49.309Z,18.07
2019-04-16T16:51:23.091Z,19.67
2019-04-16T16:54:03.574Z,33.00
2019-04-16T16:56:43.882Z,33.37
2019-04-16T16:59:18.551Z,51.97
2019-04-16T17:02:10.362Z,52.63
2019-04-16T17:04:44.767Z,50.20
2019-04-16T17:07:18.053Z,47.93
2019-04-16T17:09:50.927Z,46.50
2019-04-16T17:12:23.780Z,41.80
2019-04-16T17:14:56.587Z,58.57
2019-04-16T17:17:29.281Z,65.33
2019-04-16T17:20:02.171Z,106.03
2019-04-16T17:22:35.184Z,63.83
2019-04-16T17:25:11.701Z,87.33
2019-04-16T17:27:51.036Z,84.83
2019-04-16T17:30:18.085Z,67.63
2019-04-16T17:32:50.837Z,193.67
2019-04-16T17:35:23.803Z,146.97
2019-04-16T17:38:01.549Z,86.33
2019-04-16T17:40:33.205Z,89.80
2019-04-16T17:43:16.713Z,127.03
2019-04-16T17:45:51.078Z,154.53
2019-04-16T17:48:28.879Z,194.83
2019-04-16T17:51:03.492Z,96.73
2019-04-16T17:53:40.792Z,136.27
2019-04-16T17:56:33.772Z,139.03
2019-04-16T17:59:08.355Z,114.80
2019-04-16T18:01:58.699Z,103.00
2019-04-16T18:04:51.845Z,106.77
2019-04-16T18:07:38.521Z,139.20
2019-04-16T18:10:26.721Z,133.20
2019-04-16T18:12:59.047Z,79.33
2019-04-16T18:15:36.228Z,144.37
2019-04-16T18:18:16.950Z,216.37
2019-04-16T18:21:07.087Z,57.60
2019-04-16T18:23:56.902Z,39.40
2019-04-16T18:26:37.532Z,36.23
2019-04-16T18:29:12.687Z,30.83
2019-04-16T18:31:52.518Z,35.70
2019-04-16T18:34:24.482Z,26.70
2019-04-16T18:36:59.632Z,27.03
2019-04-16T18:39:50.312Z,36.60
2019-04-16T18:42:24.837Z,54.57
2019-04-16T18:44:59.256Z,151.20
2019-04-16T18:47:40.022Z,99.93
2019-04-16T18:50:22.182Z,53.47
2019-04-16T18:52:52.392Z,69.57
2019-04-16T18:55:25.122Z,37.40
2019-04-16T18:57:57.906Z,30.33
2019-04-16T19:00:44.652Z,38.97
2019-04-16T19:03:18.156Z,32.03
2019-04-16T19:05:50.976Z,47.20
2019-04-16T19:08:23.752Z,58.17
2019-04-16T19:10:56.508Z,105.20
2019-04-16T19:13:29.175Z,68.53
2019-04-16T19:16:01.972Z,104.67
2019-04-16T19:18:34.627Z,151.67
2019-04-16T19:21:07.796Z,142.97
2019-04-16T19:23:40.396Z,113.17
2019-04-16T19:26:13.332Z,108.63
2019-04-16T19:28:46.065Z,84.60
2019-04-16T19:31:22.846Z,69.93
2019-04-16T19:33:53.184Z,97.23
2019-04-16T19:36:27.489Z,106.57
2019-04-16T19:39:00.336Z,113.33
2019-04-16T19:41:33.421Z,138.80
2019-04-16T19:44:07.836Z,162.90
2019-04-16T19:46:41.166Z,226.90
2019-04-16T19:49:14.046Z,196.17
2019-04-16T19:51:46.942Z,273.63
2019-04-16T19:54:20.012Z,456.30
2019-04-16T19:56:52.823Z,321.93
2019-04-16T19:59:25.727Z,242.10
2019-04-16T20:02:00.251Z,181.57
2019-04-16T20:04:33.598Z,198.30
2019-04-16T20:07:06.946Z,192.13
2019-04-16T20:09:40.151Z,184.60
2019-04-16T20:12:12.818Z,215.43
2019-04-16T20:14:45.651Z,225.17
2019-04-16T20:17:18.427Z,200.83
2019-04-16T20:19:59.312Z,154.70
2019-04-16T20:22:33.187Z,141.83
2019-04-16T20:25:07.304Z,158.13
2019-04-16T20:27:40.813Z,106.67
2019-04-16T20:30:15.007Z,102.23
2019-04-16T20:32:47.971Z,164.53
2019-04-16T20:35:20.704Z,140.20
2019-04-16T20:37:55.054Z,112.07
2019-04-16T20:40:27.806Z,242.93
2019-04-16T20:43:00.496Z,128.33
2019-04-16T20:45:33.501Z,138.60
2019-04-16T20:48:09.122Z,173.07
2019-04-16T20:50:40.752Z,86.10
2019-04-16T20:53:13.206Z,89.00
2019-04-16T20:55:47.425Z,80.10
2019-04-16T20:58:21.599Z,96.77
2019-04-16T21:00:55.833Z,76.77
2019-04-16T21:03:31.048Z,108.90
2019-04-16T21:06:07.448Z,68.70
2019-04-16T21:08:36.826Z,58.83
2019-04-16T21:11:09.820Z,68.50
2019-04-16T21:13:42.756Z,62.93
2019-04-16T21:16:15.711Z,65.87
2019-04-16T21:18:48.272Z,81.13
2019-04-16T21:21:23.468Z,60.77
2019-04-16T21:23:55.419Z,68.63
2019-04-16T21:26:27.961Z,54.37
2019-04-16T21:29:05.054Z,56.70
2019-04-16T21:31:47.015Z,55.60
2019-04-16T21:34:24.253Z,60.67
2019-04-16T21:36:57.591Z,51.10
2019-04-16T21:39:31.732Z,53.20
2019-04-16T21:42:04.262Z,56.60
2019-04-16T21:44:36.999Z,44.80
2019-04-16T21:47:09.531Z,55.53
2019-04-16T21:49:45.061Z,46.80
2019-04-16T21:52:16.736Z,48.37
2019-04-16T21:54:49.036Z,50.27
2019-04-16T21:57:21.753Z,45.27
2019-04-16T21:59:58.101Z,66.87
2019-04-16T22:02:34.598Z,51.20
2019-04-16T22:05:08.972Z,46.23
2019-04-16T22:07:41.551Z,46.77
2019-04-16T22:10:14.275Z,47.23
2019-04-16T22:12:47.684Z,47.30
2019-04-16T22:15:25.205Z,47.90
2019-04-16T22:17:55.919Z,51.90
2019-04-16T22:20:28.520Z,47.80
2019-04-16T22:23:01.306Z,53.43
2019-04-16T22:25:33.901Z,61.50
2019-04-16T22:28:11.747Z,44.93
2019-04-16T22:30:40.681Z,56.63
2019-04-16T22:33:13.461Z,47.77
2019-04-16T22:35:46.016Z,46.60
2019-04-16T22:38:18.771Z,59.40
2019-04-16T22:41:07.776Z,44.60
2019-04-16T22:43:57.977Z,39.83
2019-04-16T22:46:34.723Z,43.43
2019-04-16T22:49:07.416Z,34.33
2019-04-16T22:51:43.228Z,43.23
2019-04-16T22:54:17.635Z,37.20
2019-04-16T22:57:02.557Z,43.77
2019-04-16T22:59:39.123Z,42.50
2019-04-16T23:02:13.799Z,35.40
2019-04-16T23:04:44.986Z,46.63
2019-04-16T23:07:17.576Z,39.03
2019-04-16T23:09:50.331Z,36.90
2019-04-16T23:12:27.177Z,32.80
2019-04-16T23:14:58.481Z,31.57
2019-04-16T23:17:31.151Z,33.07
2019-04-16T23:20:04.691Z,44.50
2019-04-16T23:22:37.101Z,35.43
2019-04-16T23:25:09.860Z,43.50
2019-04-16T23:27:42.581Z,44.17
2019-04-16T23:30:18.512Z,35.17
2019-04-16T23:32:50.506Z,39.90
2019-04-16T23:35:24.990Z,42.47
2019-04-16T23:37:59.502Z,34.53
2019-04-16T23:40:32.396Z,31.77
2019-04-16T23:43:06.541Z,40.20
2019-04-16T23:45:40.562Z,33.07
2019-04-16T23:48:17.453Z,38.33
2019-04-16T23:50:59.111Z,31.93
2019-04-16T23:53:38.122Z,37.07
2019-04-16T23:56:14.466Z,43.73
2019-04-16T23:58:48.647Z,39.33
